sensor_id;sensor_type;location;lat;lon;timestamp;pressure;altitude;pressure_sealevel;temperature;humidity
78986;BME280;68384;55.750;48.746;2023-10-13T00:01:10;97985.38;;;6.46;86.10
78986;BME280;68384;55.750;48.746;2023-10-13T00:03:40;97984.56;;;6.47;86.27
78986;BME280;68384;55.750;48.746;2023-10-13T00:06:07;97988.03;;;6.49;86.20
78986;BME280;68384;55.750;48.746;2023-10-13T00:08:36;97991.47;;;6.50;86.26
78986;BME280;68384;55.750;48.746;2023-10-13T00:11:11;97983.75;;;6.50;86.14
78986;BME280;68384;55.750;48.746;2023-10-13T00:13:39;97978.59;;;6.51;86.50
78986;BME280;68384;55.750;48.746;2023-10-13T00:16:11;97984.69;;;6.55;86.53
78986;BME280;68384;55.750;48.746;2023-10-13T00:18:44;97986.44;;;6.56;86.02
78986;BME280;68384;55.750;48.746;2023-10-13T00:21:12;97982.22;;;6.59;86.12
78986;BME280;68384;55.750;48.746;2023-10-13T00:23:41;97972.75;;;6.58;85.83
78986;BME280;68384;55.750;48.746;2023-10-13T00:26:22;97973.63;;;6.60;85.79
78986;BME280;68384;55.750;48.746;2023-10-13T00:29:00;97993.34;;;6.60;86.09
78986;BME280;68384;55.750;48.746;2023-10-13T00:31:43;97979.66;;;6.59;85.88
78986;BME280;68384;55.750;48.746;2023-10-13T00:34:15;97988.22;;;6.60;85.83
78986;BME280;68384;55.750;48.746;2023-10-13T00:36:52;97994.16;;;6.56;86.13
78986;BME280;68384;55.750;48.746;2023-10-13T00:39:43;97991.59;;;6.57;86.38
78986;BME280;68384;55.750;48.746;2023-10-13T00:42:13;97982.22;;;6.59;86.48
78986;BME280;68384;55.750;48.746;2023-10-13T00:44:52;97983.88;;;6.56;87.25
78986;BME280;68384;55.750;48.746;2023-10-13T00:47:22;97971.75;;;6.52;87.15
78986;BME280;68384;55.750;48.746;2023-10-13T00:50:10;97982.00;;;6.49;87.39
78986;BME280;68384;55.750;48.746;2023-10-13T00:52:43;97988.81;;;6.45;87.27
78986;BME280;68384;55.750;48.746;2023-10-13T00:55:14;97997.38;;;6.44;87.61
78986;BME280;68384;55.750;48.746;2023-10-13T00:57:45;97989.53;;;6.38;87.57
78986;BME280;68384;55.750;48.746;2023-10-13T01:00:14;98002.41;;;6.38;87.91
78986;BME280;68384;55.750;48.746;2023-10-13T01:02:55;97994.66;;;6.38;87.84
78986;BME280;68384;55.750;48.746;2023-10-13T01:05:34;97998.94;;;6.36;87.86
78986;BME280;68384;55.750;48.746;2023-10-13T01:08:04;97999.75;;;6.35;87.87
78986;BME280;68384;55.750;48.746;2023-10-13T01:10:32;98000.69;;;6.37;87.79
78986;BME280;68384;55.750;48.746;2023-10-13T01:13:00;97995.59;;;6.40;87.85
78986;BME280;68384;55.750;48.746;2023-10-13T01:15:29;98003.25;;;6.37;87.75
78986;BME280;68384;55.750;48.746;2023-10-13T01:18:08;97994.72;;;6.40;87.81
78986;BME280;68384;55.750;48.746;2023-10-13T01:20:39;97997.31;;;6.41;87.94
78986;BME280;68384;55.750;48.746;2023-10-13T01:23:13;97997.31;;;6.41;87.98
78986;BME280;68384;55.750;48.746;2023-10-13T01:25:47;98001.59;;;6.41;88.01
78986;BME280;68384;55.750;48.746;2023-10-13T01:28:16;98004.19;;;6.42;87.77
78986;BME280;68384;55.750;48.746;2023-10-13T01:30:44;98008.50;;;6.43;88.09
78986;BME280;68384;55.750;48.746;2023-10-13T01:33:20;98009.47;;;6.48;88.18
78986;BME280;68384;55.750;48.746;2023-10-13T01:35:55;98007.75;;;6.49;88.22
78986;BME280;68384;55.750;48.746;2023-10-13T01:38:27;98006.09;;;6.52;88.06
78986;BME280;68384;55.750;48.746;2023-10-13T01:41:00;98005.28;;;6.53;88.37
78986;BME280;68384;55.750;48.746;2023-10-13T01:43:31;98007.03;;;6.56;88.24
78986;BME280;68384;55.750;48.746;2023-10-13T01:46:00;98013.91;;;6.57;88.52
78986;BME280;68384;55.750;48.746;2023-10-13T01:48:30;98007.91;;;6.56;88.26
78986;BME280;68384;55.750;48.746;2023-10-13T01:51:06;98001.97;;;6.60;88.28
78986;BME280;68384;55.750;48.746;2023-10-13T01:53:37;98007.16;;;6.62;87.99
78986;BME280;68384;55.750;48.746;2023-10-13T01:56:06;97998.56;;;6.63;88.11
78986;BME280;68384;55.750;48.746;2023-10-13T01:58:38;97998.63;;;6.64;88.11
78986;BME280;68384;55.750;48.746;2023-10-13T02:01:09;98003.75;;;6.64;87.99
78986;BME280;68384;55.750;48.746;2023-10-13T02:03:38;97991.78;;;6.66;88.03
78986;BME280;68384;55.750;48.746;2023-10-13T02:06:15;97996.06;;;6.66;88.08
78986;BME280;68384;55.750;48.746;2023-10-13T02:08:51;97999.56;;;6.69;88.08
78986;BME280;68384;55.750;48.746;2023-10-13T02:11:24;97988.41;;;6.70;88.12
78986;BME280;68384;55.750;48.746;2023-10-13T02:13:51;97979.03;;;6.72;88.01
78986;BME280;68384;55.750;48.746;2023-10-13T02:16:21;98000.50;;;6.73;88.14
78986;BME280;68384;55.750;48.746;2023-10-13T02:18:49;97988.50;;;6.75;87.99
78986;BME280;68384;55.750;48.746;2023-10-13T02:21:20;97976.50;;;6.75;88.10
78986;BME280;68384;55.750;48.746;2023-10-13T02:23:48;97973.88;;;6.74;88.20
78986;BME280;68384;55.750;48.746;2023-10-13T02:26:30;97974.75;;;6.74;88.39
78986;BME280;68384;55.750;48.746;2023-10-13T02:28:59;97988.47;;;6.73;88.58
78986;BME280;68384;55.750;48.746;2023-10-13T02:31:32;97982.53;;;6.78;88.63
78986;BME280;68384;55.750;48.746;2023-10-13T02:34:01;97977.34;;;6.76;88.71
78986;BME280;68384;55.750;48.746;2023-10-13T02:36:36;97975.63;;;6.76;88.83
78986;BME280;68384;55.750;48.746;2023-10-13T02:39:04;97974.75;;;6.74;88.91
78986;BME280;68384;55.750;48.746;2023-10-13T02:41:35;97974.75;;;6.76;89.00
78986;BME280;68384;55.750;48.746;2023-10-13T02:44:06;97983.34;;;6.76;88.79
78986;BME280;68384;55.750;48.746;2023-10-13T02:46:34;97985.97;;;6.78;89.06
78986;BME280;68384;55.750;48.746;2023-10-13T02:49:03;97985.09;;;6.78;88.97
78986;BME280;68384;55.750;48.746;2023-10-13T02:51:38;97989.44;;;6.80;88.71
78986;BME280;68384;55.750;48.746;2023-10-13T02:54:10;97981.72;;;6.82;88.78
78986;BME280;68384;55.750;48.746;2023-10-13T02:56:39;97986.06;;;6.83;88.59
78986;BME280;68384;55.750;48.746;2023-10-13T02:59:25;97977.50;;;6.85;88.59
78986;BME280;68384;55.750;48.746;2023-10-13T03:02:07;97992.13;;;6.88;88.65
78986;BME280;68384;55.750;48.746;2023-10-13T03:05:00;97985.28;;;6.87;88.34
78986;BME280;68384;55.750;48.746;2023-10-13T03:07:37;97987.03;;;6.89;88.35
78986;BME280;68384;55.750;48.746;2023-10-13T03:10:04;97992.19;;;6.91;88.44
78986;BME280;68384;55.750;48.746;2023-10-13T03:12:39;97996.53;;;6.92;88.60
78986;BME280;68384;55.750;48.746;2023-10-13T03:15:07;97994.78;;;6.91;88.36
78986;BME280;68384;55.750;48.746;2023-10-13T03:17:46;97999.97;;;6.94;88.32
78986;BME280;68384;55.750;48.746;2023-10-13T03:20:15;98001.69;;;6.93;88.28
78986;BME280;68384;55.750;48.746;2023-10-13T03:22:47;97997.41;;;6.95;88.24
78986;BME280;68384;55.750;48.746;2023-10-13T03:25:14;97999.16;;;6.96;88.24
78986;BME280;68384;55.750;48.746;2023-10-13T03:27:51;97997.47;;;6.97;87.97
78986;BME280;68384;55.750;48.746;2023-10-13T03:30:19;97988.09;;;7.00;87.88
78986;BME280;68384;55.750;48.746;2023-10-13T03:32:48;98000.97;;;7.02;87.69
78986;BME280;68384;55.750;48.746;2023-10-13T03:35:20;98000.16;;;7.04;87.63
78986;BME280;68384;55.750;48.746;2023-10-13T03:37:52;98008.81;;;7.08;87.41
78986;BME280;68384;55.750;48.746;2023-10-13T03:40:21;98012.28;;;7.10;87.49
78986;BME280;68384;55.750;48.746;2023-10-13T03:42:55;98013.97;;;7.08;87.45
78986;BME280;68384;55.750;48.746;2023-10-13T03:45:33;98002.84;;;7.12;87.39
78986;BME280;68384;55.750;48.746;2023-10-13T03:48:10;98009.75;;;7.13;87.43
78986;BME280;68384;55.750;48.746;2023-10-13T03:53:31;98010.69;;;7.18;87.29
78986;BME280;68384;55.750;48.746;2023-10-13T03:56:06;98013.31;;;7.19;87.23
78986;BME280;68384;55.750;48.746;2023-10-13T03:58:43;98013.25;;;7.16;87.51
78986;BME280;68384;55.750;48.746;2023-10-13T04:01:14;98021.81;;;7.15;87.22
78986;BME280;68384;55.750;48.746;2023-10-13T04:03:44;98019.28;;;7.18;87.92
78986;BME280;68384;55.750;48.746;2023-10-13T04:06:24;98015.88;;;7.21;87.26
78986;BME280;68384;55.750;48.746;2023-10-13T04:09:21;98016.81;;;7.24;87.09
78986;BME280;68384;55.750;48.746;2023-10-13T04:12:01;98015.91;;;7.22;87.22
78986;BME280;68384;55.750;48.746;2023-10-13T04:14:40;98022.06;;;7.27;87.08
78986;BME280;68384;55.750;48.746;2023-10-13T04:17:10;98021.19;;;7.27;86.90
78986;BME280;68384;55.750;48.746;2023-10-13T04:19:52;98009.19;;;7.29;86.90
78986;BME280;68384;55.750;48.746;2023-10-13T04:25:21;98017.78;;;7.31;86.56
78986;BME280;68384;55.750;48.746;2023-10-13T04:28:09;98020.41;;;7.34;86.60
78986;BME280;68384;55.750;48.746;2023-10-13T04:30:47;98027.38;;;7.38;86.23
78986;BME280;68384;55.750;48.746;2023-10-13T04:33:31;98030.81;;;7.39;86.21
78986;BME280;68384;55.750;48.746;2023-10-13T04:36:04;98038.47;;;7.34;86.27
78986;BME280;68384;55.750;48.746;2023-10-13T04:38:43;98041.97;;;7.38;85.99
78986;BME280;68384;55.750;48.746;2023-10-13T04:41:31;98040.25;;;7.38;85.82
78986;BME280;68384;55.750;48.746;2023-10-13T04:44:12;98033.34;;;7.37;86.00
78986;BME280;68384;55.750;48.746;2023-10-13T04:46:59;98046.41;;;7.46;85.90
78986;BME280;68384;55.750;48.746;2023-10-13T04:49:30;98053.25;;;7.46;85.77
78986;BME280;68384;55.750;48.746;2023-10-13T04:52:18;98045.53;;;7.47;85.80
78986;BME280;68384;55.750;48.746;2023-10-13T04:55:15;98048.22;;;7.52;85.49
78986;BME280;68384;55.750;48.746;2023-10-13T04:58:05;98048.22;;;7.52;85.39
78986;BME280;68384;55.750;48.746;2023-10-13T05:01:02;98053.47;;;7.59;85.25
78986;BME280;68384;55.750;48.746;2023-10-13T05:03:49;98044.03;;;7.61;84.98
78986;BME280;68384;55.750;48.746;2023-10-13T05:06:20;98040.69;;;7.67;84.90
78986;BME280;68384;55.750;48.746;2023-10-13T05:09:06;98038.19;;;7.71;84.64
78986;BME280;68384;55.750;48.746;2023-10-13T05:11:52;98046.00;;;7.77;84.44
78986;BME280;68384;55.750;48.746;2023-10-13T05:14:38;98039.22;;;7.82;84.35
78986;BME280;68384;55.750;48.746;2023-10-13T05:17:24;98044.41;;;7.85;84.05
78986;BME280;68384;55.750;48.746;2023-10-13T05:20:11;98039.38;;;7.93;83.59
78986;BME280;68384;55.750;48.746;2023-10-13T05:22:56;98037.75;;;8.03;83.45
78986;BME280;68384;55.750;48.746;2023-10-13T05:25:42;98028.31;;;8.03;83.09
78986;BME280;68384;55.750;48.746;2023-10-13T05:28:29;98039.59;;;8.10;82.81
78986;BME280;68384;55.750;48.746;2023-10-13T05:31:15;98041.34;;;8.14;82.63
78986;BME280;68384;55.750;48.746;2023-10-13T05:34:02;98040.50;;;8.15;82.18
78986;BME280;68384;55.750;48.746;2023-10-13T05:36:48;98035.41;;;8.18;82.24
78986;BME280;68384;55.750;48.746;2023-10-13T05:39:34;98039.75;;;8.23;82.02
78986;BME280;68384;55.750;48.746;2023-10-13T05:42:20;98047.50;;;8.25;81.97
78986;BME280;68384;55.750;48.746;2023-10-13T05:45:06;98040.59;;;8.24;81.96
78986;BME280;68384;55.750;48.746;2023-10-13T05:48:07;98034.59;;;8.25;81.79
78986;BME280;68384;55.750;48.746;2023-10-13T05:50:46;98034.59;;;8.25;81.89
78986;BME280;68384;55.750;48.746;2023-10-13T05:53:32;98032.03;;;8.25;82.05
78986;BME280;68384;55.750;48.746;2023-10-13T05:56:18;98036.41;;;8.30;82.07
78986;BME280;68384;55.750;48.746;2023-10-13T05:59:04;98033.84;;;8.35;82.01
78986;BME280;68384;55.750;48.746;2023-10-13T06:01:50;98027.06;;;8.41;81.75
78986;BME280;68384;55.750;48.746;2023-10-13T06:04:36;98033.97;;;8.45;81.28
78986;BME280;68384;55.750;48.746;2023-10-13T06:07:22;98032.31;;;8.47;81.30
78986;BME280;68384;55.750;48.746;2023-10-13T06:10:09;98033.19;;;8.49;81.33
78986;BME280;68384;55.750;48.746;2023-10-13T06:12:55;98017.72;;;8.52;81.55
78986;BME280;68384;55.750;48.746;2023-10-13T06:15:41;98029.81;;;8.55;81.09
78986;BME280;68384;55.750;48.746;2023-10-13T06:18:27;98033.31;;;8.60;80.91
78986;BME280;68384;55.750;48.746;2023-10-13T06:21:13;98029.84;;;8.60;80.74
78986;BME280;68384;55.750;48.746;2023-10-13T06:23:59;98029.88;;;8.63;81.02
78986;BME280;68384;55.750;48.746;2023-10-13T06:26:49;98029.13;;;8.70;80.61
78986;BME280;68384;55.750;48.746;2023-10-13T06:29:34;98030.91;;;8.75;80.50
78986;BME280;68384;55.750;48.746;2023-10-13T06:32:02;98017.97;;;8.78;80.15
78986;BME280;68384;55.750;48.746;2023-10-13T06:34:41;98034.38;;;8.82;79.87
78986;BME280;68384;55.750;48.746;2023-10-13T06:37:15;98033.56;;;8.84;79.95
78986;BME280;68384;55.750;48.746;2023-10-13T06:40:12;98037.88;;;8.85;79.88
78986;BME280;68384;55.750;48.746;2023-10-13T06:43:01;98025.84;;;8.87;79.83
78986;BME280;68384;55.750;48.746;2023-10-13T06:45:45;98023.19;;;8.81;79.76
78986;BME280;68384;55.750;48.746;2023-10-13T06:48:18;98026.59;;;8.77;79.97
78986;BME280;68384;55.750;48.746;2023-10-13T06:50:48;98036.13;;;8.83;80.09
78986;BME280;68384;55.750;48.746;2023-10-13T06:53:16;98031.84;;;8.86;79.82
78986;BME280;68384;55.750;48.746;2023-10-13T06:55:44;98025.00;;;8.88;79.59
78986;BME280;68384;55.750;48.746;2023-10-13T06:58:14;98013.84;;;8.95;79.67
78986;BME280;68384;55.750;48.746;2023-10-13T07:00:45;98022.50;;;8.99;79.44
78986;BME280;68384;55.750;48.746;2023-10-13T07:03:20;98007.03;;;9.03;79.31
78986;BME280;68384;55.750;48.746;2023-10-13T07:05:48;98011.38;;;9.07;79.26
78986;BME280;68384;55.750;48.746;2023-10-13T07:08:16;98018.38;;;9.15;78.85
78986;BME280;68384;55.750;48.746;2023-10-13T07:10:52;98017.56;;;9.20;78.74
78986;BME280;68384;55.750;48.746;2023-10-13T07:13:30;98021.00;;;9.22;78.50
78986;BME280;68384;55.750;48.746;2023-10-13T07:16:00;98025.34;;;9.25;78.74
78986;BME280;68384;55.750;48.746;2023-10-13T07:18:42;98025.34;;;9.25;78.65
78986;BME280;68384;55.750;48.746;2023-10-13T07:21:22;98026.22;;;9.24;78.44
78986;BME280;68384;55.750;48.746;2023-10-13T07:23:59;98016.72;;;9.21;78.49
78986;BME280;68384;55.750;48.746;2023-10-13T07:26:37;98028.72;;;9.19;78.95
78986;BME280;68384;55.750;48.746;2023-10-13T07:29:11;98037.34;;;9.17;78.96
78986;BME280;68384;55.750;48.746;2023-10-13T07:31:39;98032.16;;;9.14;79.31
78986;BME280;68384;55.750;48.746;2023-10-13T07:34:13;98038.09;;;9.11;79.64
78986;BME280;68384;55.750;48.746;2023-10-13T07:36:53;98030.34;;;9.11;79.81
78986;BME280;68384;55.750;48.746;2023-10-13T07:39:22;98020.88;;;9.11;79.78
78986;BME280;68384;55.750;48.746;2023-10-13T07:41:56;98027.84;;;9.14;79.75
78986;BME280;68384;55.750;48.746;2023-10-13T07:44:34;98028.72;;;9.18;79.96
78986;BME280;68384;55.750;48.746;2023-10-13T07:47:02;98030.44;;;9.17;79.83
78986;BME280;68384;55.750;48.746;2023-10-13T07:49:36;98020.13;;;9.19;80.03
78986;BME280;68384;55.750;48.746;2023-10-13T07:52:09;98036.53;;;9.21;79.87
78986;BME280;68384;55.750;48.746;2023-10-13T07:54:52;98032.22;;;9.23;79.94
78986;BME280;68384;55.750;48.746;2023-10-13T07:57:38;98021.88;;;9.23;79.74
78986;BME280;68384;55.750;48.746;2023-10-13T08:00:23;98016.72;;;9.23;79.67
78986;BME280;68384;55.750;48.746;2023-10-13T08:03:07;98015.03;;;9.26;79.45
78986;BME280;68384;55.750;48.746;2023-10-13T08:05:45;98016.75;;;9.26;79.24
78986;BME280;68384;55.750;48.746;2023-10-13T08:08:25;98011.56;;;9.26;79.05
78986;BME280;68384;55.750;48.746;2023-10-13T08:10:53;98009.81;;;9.22;78.95
78986;BME280;68384;55.750;48.746;2023-10-13T08:13:28;98003.75;;;9.20;79.25
78986;BME280;68384;55.750;48.746;2023-10-13T08:15:55;98004.72;;;9.29;78.78
78986;BME280;68384;55.750;48.746;2023-10-13T08:18:27;97997.78;;;9.27;79.00
78986;BME280;68384;55.750;48.746;2023-10-13T08:20:58;98014.19;;;9.29;78.80
78986;BME280;68384;55.750;48.746;2023-10-13T08:23:33;98005.63;;;9.37;78.83
78986;BME280;68384;55.750;48.746;2023-10-13T08:26:23;98009.06;;;9.35;78.83
78986;BME280;68384;55.750;48.746;2023-10-13T08:28:58;98004.69;;;9.28;78.97
78986;BME280;68384;55.750;48.746;2023-10-13T08:31:51;98009.06;;;9.35;78.74
78986;BME280;68384;55.750;48.746;2023-10-13T08:34:33;98001.31;;;9.39;78.40
78986;BME280;68384;55.750;48.746;2023-10-13T08:37:13;97990.09;;;9.39;78.88
78986;BME280;68384;55.750;48.746;2023-10-13T08:39:56;97989.34;;;9.52;78.29
78986;BME280;68384;55.750;48.746;2023-10-13T08:42:38;97986.00;;;9.68;77.81
78986;BME280;68384;55.750;48.746;2023-10-13T08:48:10;97980.91;;;9.83;77.01
78986;BME280;68384;55.750;48.746;2023-10-13T08:50:43;97980.09;;;9.93;76.67
78986;BME280;68384;55.750;48.746;2023-10-13T08:53:25;97975.81;;;10.01;76.15
78986;BME280;68384;55.750;48.746;2023-10-13T08:56:06;97974.97;;;10.01;75.77
78986;BME280;68384;55.750;48.746;2023-10-13T08:58:53;97974.97;;;10.04;75.55
78986;BME280;68384;55.750;48.746;2023-10-13T09:01:35;97975.00;;;10.05;75.29
78986;BME280;68384;55.750;48.746;2023-10-13T09:04:26;97971.50;;;10.02;75.44
78986;BME280;68384;55.750;48.746;2023-10-13T09:07:05;97962.06;;;10.11;75.80
78986;BME280;68384;55.750;48.746;2023-10-13T09:10:04;97962.09;;;10.14;74.66
78986;BME280;68384;55.750;48.746;2023-10-13T09:12:39;97962.06;;;10.17;74.98
78986;BME280;68384;55.750;48.746;2023-10-13T09:15:29;97962.09;;;10.22;74.80
78986;BME280;68384;55.750;48.746;2023-10-13T09:18:25;97958.66;;;10.21;74.66
78986;BME280;68384;55.750;48.746;2023-10-13T09:21:16;97958.69;;;10.30;74.21
78986;BME280;68384;55.750;48.746;2023-10-13T09:24:04;97962.13;;;10.28;74.52
78986;BME280;68384;55.750;48.746;2023-10-13T09:26:54;97950.03;;;10.27;74.57
78986;BME280;68384;55.750;48.746;2023-10-13T09:29:24;97944.91;;;10.47;73.93
78986;BME280;68384;55.750;48.746;2023-10-13T09:32:00;97944.06;;;10.60;73.53
78986;BME280;68384;55.750;48.746;2023-10-13T09:34:31;97944.13;;;10.78;73.07
78986;BME280;68384;55.750;48.746;2023-10-13T09:37:02;97938.06;;;10.83;72.22
78986;BME280;68384;55.750;48.746;2023-10-13T09:39:32;97935.47;;;10.76;72.32
78986;BME280;68384;55.750;48.746;2023-10-13T09:42:22;97944.13;;;10.72;72.35
78986;BME280;68384;55.750;48.746;2023-10-13T09:44:53;97941.50;;;10.63;72.67
78986;BME280;68384;55.750;48.746;2023-10-13T09:47:28;97944.06;;;10.55;73.09
78986;BME280;68384;55.750;48.746;2023-10-13T09:50:08;97951.81;;;10.49;74.25
78986;BME280;68384;55.750;48.746;2023-10-13T09:52:44;97962.16;;;10.48;75.02
78986;BME280;68384;55.750;48.746;2023-10-13T09:55:21;97952.66;;;10.45;75.91
78986;BME280;68384;55.750;48.746;2023-10-13T09:58:19;97956.94;;;10.29;76.12
78986;BME280;68384;55.750;48.746;2023-10-13T10:00:54;97950.00;;;10.13;77.81
78986;BME280;68384;55.750;48.746;2023-10-13T10:03:29;97956.84;;;10.02;78.44
78986;BME280;68384;55.750;48.746;2023-10-13T10:05:59;97965.44;;;9.94;80.26
78986;BME280;68384;55.750;48.746;2023-10-13T10:08:44;97965.28;;;9.62;81.60
78986;BME280;68384;55.750;48.746;2023-10-13T10:11:23;97992.78;;;9.48;83.38
78986;BME280;68384;55.750;48.746;2023-10-13T10:17:07;97966.66;;;8.27;84.61
78986;BME280;68384;55.750;48.746;2023-10-13T10:19:54;97968.91;;;8.02;85.21
78986;BME280;68384;55.750;48.746;2023-10-13T10:22:30;97962.81;;;7.92;84.97
78986;BME280;68384;55.750;48.746;2023-10-13T10:25:04;97979.97;;;7.90;85.60
78986;BME280;68384;55.750;48.746;2023-10-13T10:27:59;97974.91;;;7.98;86.51
78986;BME280;68384;55.750;48.746;2023-10-13T10:30:27;97977.69;;;8.16;87.97
78986;BME280;68384;55.750;48.746;2023-10-13T10:32:59;97986.44;;;8.27;88.09
78986;BME280;68384;55.750;48.746;2023-10-13T10:35:27;97984.03;;;8.42;88.47
78986;BME280;68384;55.750;48.746;2023-10-13T10:38:18;97996.31;;;8.61;89.03
78986;BME280;68384;55.750;48.746;2023-10-13T10:41:04;97987.00;;;8.81;87.57
78986;BME280;68384;55.750;48.746;2023-10-13T10:43:39;97987.19;;;9.01;86.89
78986;BME280;68384;55.750;48.746;2023-10-13T10:48:45;97994.41;;;9.37;83.58
78986;BME280;68384;55.750;48.746;2023-10-13T10:51:13;97983.38;;;9.63;83.08
78986;BME280;68384;55.750;48.746;2023-10-13T10:53:42;97990.41;;;9.86;79.83
78986;BME280;68384;55.750;48.746;2023-10-13T10:56:15;97994.00;;;10.10;78.69
78986;BME280;68384;55.750;48.746;2023-10-13T10:59:34;97997.53;;;10.35;77.81
78986;BME280;68384;55.750;48.746;2023-10-13T11:02:05;97998.41;;;10.36;77.49
78986;BME280;68384;55.750;48.746;2023-10-13T11:04:35;98005.38;;;10.47;77.50
78986;BME280;68384;55.750;48.746;2023-10-13T11:07:08;98001.03;;;10.48;76.92
78986;BME280;68384;55.750;48.746;2023-10-13T11:09:38;98002.88;;;10.80;76.50
78986;BME280;68384;55.750;48.746;2023-10-13T11:12:14;97992.53;;;10.97;74.63
78986;BME280;68384;55.750;48.746;2023-10-13T11:15:05;97994.28;;;11.12;72.99
78986;BME280;68384;55.750;48.746;2023-10-13T11:18:00;97982.16;;;11.36;72.70
78986;BME280;68384;55.750;48.746;2023-10-13T11:20:33;97990.81;;;11.28;71.46
78986;BME280;68384;55.750;48.746;2023-10-13T11:23:12;97993.44;;;11.29;70.02
78986;BME280;68384;55.750;48.746;2023-10-13T11:25:40;98001.22;;;11.29;68.86
78986;BME280;68384;55.750;48.746;2023-10-13T11:28:14;98002.06;;;11.37;67.69
78986;BME280;68384;55.750;48.746;2023-10-13T11:30:46;98014.16;;;11.51;67.74
78986;BME280;68384;55.750;48.746;2023-10-13T11:33:18;98009.84;;;11.62;67.42
78986;BME280;68384;55.750;48.746;2023-10-13T11:35:51;98002.03;;;11.75;67.13
78986;BME280;68384;55.750;48.746;2023-10-13T11:38:24;98008.91;;;11.79;66.25
78986;BME280;68384;55.750;48.746;2023-10-13T11:41:03;98020.19;;;11.75;65.02
78986;BME280;68384;55.750;48.746;2023-10-13T11:43:47;98025.38;;;11.83;65.21
78986;BME280;68384;55.750;48.746;2023-10-13T11:46:36;98025.34;;;11.87;63.79
78986;BME280;68384;55.750;48.746;2023-10-13T11:49:10;98027.91;;;12.01;63.99
78986;BME280;68384;55.750;48.746;2023-10-13T11:51:42;98020.09;;;12.18;63.32
78986;BME280;68384;55.750;48.746;2023-10-13T11:54:14;98019.28;;;12.14;62.05
78986;BME280;68384;55.750;48.746;2023-10-13T11:56:42;98028.75;;;12.27;62.33
78986;BME280;68384;55.750;48.746;2023-10-13T11:59:10;98027.91;;;12.22;61.70
78986;BME280;68384;55.750;48.746;2023-10-13T12:01:46;98021.00;;;12.03;62.01
78986;BME280;68384;55.750;48.746;2023-10-13T12:04:33;98032.31;;;11.84;63.01
78986;BME280;68384;55.750;48.746;2023-10-13T12:07:21;98025.41;;;11.62;62.90
78986;BME280;68384;55.750;48.746;2023-10-13T12:09:54;98035.78;;;11.39;63.63
78986;BME280;68384;55.750;48.746;2023-10-13T12:12:26;98034.03;;;11.27;64.48
78986;BME280;68384;55.750;48.746;2023-10-13T12:14:55;98034.06;;;11.15;64.56
78986;BME280;68384;55.750;48.746;2023-10-13T12:17:27;98024.50;;;11.05;64.89
78986;BME280;68384;55.750;48.746;2023-10-13T12:19:59;98052.16;;;10.97;64.03
78986;BME280;68384;55.750;48.746;2023-10-13T12:22:29;98047.84;;;10.90;63.92
78986;BME280;68384;55.750;48.746;2023-10-13T12:25:02;98057.31;;;10.82;63.66
78986;BME280;68384;55.750;48.746;2023-10-13T12:27:32;98073.75;;;10.82;64.36
78986;BME280;68384;55.750;48.746;2023-10-13T12:30:12;98072.91;;;10.88;64.21
78986;BME280;68384;55.750;48.746;2023-10-13T12:32:41;98067.69;;;10.94;63.66
78986;BME280;68384;55.750;48.746;2023-10-13T12:35:21;98073.78;;;11.01;63.01
78986;BME280;68384;55.750;48.746;2023-10-13T12:38:06;98079.81;;;11.03;62.27
78986;BME280;68384;55.750;48.746;2023-10-13T12:40:43;98095.38;;;10.98;62.53
78986;BME280;68384;55.750;48.746;2023-10-13T12:43:30;98090.19;;;10.92;62.86
78986;BME280;68384;55.750;48.746;2023-10-13T12:46:16;98089.28;;;10.88;63.07
78986;BME280;68384;55.750;48.746;2023-10-13T12:49:02;98091.88;;;10.82;63.29
78986;BME280;68384;55.750;48.746;2023-10-13T12:51:52;98103.03;;;10.63;63.26
78986;BME280;68384;55.750;48.746;2023-10-13T12:54:20;98109.88;;;10.57;62.34
78986;BME280;68384;55.750;48.746;2023-10-13T12:56:50;98105.56;;;10.53;61.66
78986;BME280;68384;55.750;48.746;2023-10-13T12:59:24;98115.91;;;10.50;62.61
78986;BME280;68384;55.750;48.746;2023-10-13T13:01:54;98121.88;;;10.38;62.06
78986;BME280;68384;55.750;48.746;2023-10-13T13:04:22;98119.28;;;10.37;62.18
78986;BME280;68384;55.750;48.746;2023-10-13T13:06:50;98128.72;;;10.28;62.19
78986;BME280;68384;55.750;48.746;2023-10-13T13:09:17;98127.81;;;10.20;62.92
78986;BME280;68384;55.750;48.746;2023-10-13T13:11:54;98131.22;;;10.13;63.72
78986;BME280;68384;55.750;48.746;2023-10-13T13:14:26;98139.84;;;10.06;63.97
78986;BME280;68384;55.750;48.746;2023-10-13T13:16:57;98155.34;;;10.05;64.04
78986;BME280;68384;55.750;48.746;2023-10-13T13:19:36;98161.34;;;10.04;63.80
78986;BME280;68384;55.750;48.746;2023-10-13T13:22:08;98173.47;;;10.05;63.57
78986;BME280;68384;55.750;48.746;2023-10-13T13:24:43;98154.50;;;10.06;63.44
78986;BME280;68384;55.750;48.746;2023-10-13T13:27:13;98163.97;;;10.05;62.21
78986;BME280;68384;55.750;48.746;2023-10-13T13:29:41;98177.78;;;10.07;62.88
78986;BME280;68384;55.750;48.746;2023-10-13T13:32:09;98180.38;;;10.06;63.09
78986;BME280;68384;55.750;48.746;2023-10-13T13:34:52;98191.59;;;10.03;62.75
78986;BME280;68384;55.750;48.746;2023-10-13T13:37:33;98186.34;;;9.97;61.99
78986;BME280;68384;55.750;48.746;2023-10-13T13:40:03;98182.78;;;9.83;62.13
78986;BME280;68384;55.750;48.746;2023-10-13T13:42:45;98198.25;;;9.76;62.73
78986;BME280;68384;55.750;48.746;2023-10-13T13:45:17;98205.03;;;9.66;62.98
78986;BME280;68384;55.750;48.746;2023-10-13T13:47:59;98206.66;;;9.55;63.42
78986;BME280;68384;55.750;48.746;2023-10-13T13:50:27;98194.53;;;9.49;63.47
78986;BME280;68384;55.750;48.746;2023-10-13T13:52:57;98213.34;;;9.36;63.67
78986;BME280;68384;55.750;48.746;2023-10-13T13:55:25;98215.06;;;9.34;64.21
78986;BME280;68384;55.750;48.746;2023-10-13T13:57:57;98217.56;;;9.27;64.61
78986;BME280;68384;55.750;48.746;2023-10-13T14:00:24;98217.47;;;9.19;64.87
78986;BME280;68384;55.750;48.746;2023-10-13T14:03:15;98224.34;;;9.17;64.73